Time;durP1;ratioP1;P1;durP2;ratioP2;P2;SDS_P1;SDS_P2;PMS_P1;PMS_P2;Temp;Humidity;BMP_temperature;BMP_pressure;BME280_temperature;BME280_humidity;BME280_pressure;Samples;Min_cycle;Max_cycle;Signal;HPM_P1;HPM_P2
2021/04/06 00:03:59;;;;;;;1.27;1.20;;;4.60;29.60;;;;;;10447682;28;20616;-73
2021/04/06 00:09:06;;;;;;;2.80;1.43;;;4.40;28.80;;;;;;10453570;28;20237;-73
2021/04/06 00:14:09;;;;;;;1.87;1.27;;;4.40;29.00;;;;;;10448954;28;20243;-73
2021/04/06 00:19:17;;;;;;;2.23;1.20;;;4.40;28.70;;;;;;10456065;28;20239;-73
2021/04/06 00:24:22;;;;;;;1.37;1.10;;;4.40;28.70;;;;;;10449024;28;20236;-73
2021/04/06 00:29:26;;;;;;;2.80;1.47;;;4.40;28.60;;;;;;10452002;28;20233;-73
2021/04/06 00:34:32;;;;;;;2.17;1.20;;;4.40;28.50;;;;;;10455605;28;20230;-73
2021/04/06 00:39:36;;;;;;;2.80;1.20;;;4.50;28.40;;;;;;10455984;28;20232;-73
2021/04/06 00:44:42;;;;;;;1.50;1.00;;;4.30;28.30;;;;;;10461862;28;20241;-73
2021/04/06 00:49:48;;;;;;;1.47;1.00;;;4.20;28.50;;;;;;10463681;28;20610;-73
2021/04/06 00:54:55;;;;;;;1.20;1.10;;;4.10;28.40;;;;;;10453464;28;20308;-73
2021/04/06 01:00:29;;;;;;;7.27;1.50;;;4.10;28.50;;;;;;10453221;28;20229;-73
2021/04/06 01:05:33;;;;;;;1.33;0.77;;;4.10;28.80;;;;;;10353529;28;20225;-74
2021/04/06 01:10:37;;;;;;;1.90;1.10;;;4.00;28.50;;;;;;10452745;28;20224;-73
2021/04/06 01:15:40;;;;;;;2.33;1.40;;;4.00;29.00;;;;;;10454253;28;20243;-73
2021/04/06 01:20:44;;;;;;;1.80;1.13;;;3.90;28.50;;;;;;10458751;28;20237;-73
2021/04/06 01:25:50;;;;;;;3.07;1.40;;;3.90;28.40;;;;;;10453794;28;20229;-73
2021/04/06 01:30:53;;;;;;;1.43;0.97;;;3.90;28.50;;;;;;10452982;28;20249;-73
2021/04/06 01:35:57;;;;;;;3.00;1.20;;;3.80;28.30;;;;;;10454912;28;20235;-73
2021/04/06 01:41:02;;;;;;;3.53;1.23;;;3.80;28.40;;;;;;10460769;28;20235;-73
2021/04/06 01:46:14;;;;;;;1.97;1.40;;;3.70;28.40;;;;;;10455953;28;20647;-73
2021/04/06 01:51:21;;;;;;;1.83;1.30;;;3.60;28.50;;;;;;10446190;28;20235;-70
2021/04/06 01:56:26;;;;;;;1.73;1.30;;;3.50;28.80;;;;;;10452951;28;20228;-70
2021/04/06 02:01:29;;;;;;;2.40;1.27;;;3.50;28.60;;;;;;10451502;28;20231;-70
2021/04/06 02:06:34;;;;;;;3.10;1.40;;;3.40;28.50;;;;;;10454119;28;20225;-70
2021/04/06 02:11:38;;;;;;;1.57;1.07;;;3.40;28.60;;;;;;10450813;28;20243;-70
2021/04/06 02:16:45;;;;;;;1.97;1.33;;;3.40;28.70;;;;;;10449006;28;20229;-70
2021/04/06 02:21:53;;;;;;;1.87;1.27;;;3.30;28.90;;;;;;10453146;28;20239;-70
2021/04/06 02:27:05;;;;;;;2.73;1.30;;;3.30;28.90;;;;;;10448846;28;20225;-70
2021/04/06 02:32:09;;;;;;;2.10;1.20;;;3.20;29.10;;;;;;10451797;28;20608;-70
2021/04/06 02:37:16;;;;;;;3.60;1.43;;;3.20;28.90;;;;;;10451411;28;20231;-70
2021/04/06 02:42:22;;;;;;;1.40;1.20;;;3.10;29.20;;;;;;10452855;28;20233;-70
2021/04/06 02:47:25;;;;;;;4.00;1.53;;;3.00;29.10;;;;;;10447482;28;20231;-70
2021/04/06 02:52:28;;;;;;;3.97;1.57;;;3.00;29.10;;;;;;10450629;28;20286;-70
2021/04/06 02:57:33;;;;;;;3.20;1.40;;;3.00;29.10;;;;;;10450858;28;21387;-70
2021/04/06 03:02:38;;;;;;;2.33;1.37;;;3.00;29.40;;;;;;10450438;28;20275;-70
2021/04/06 03:07:47;;;;;;;1.77;1.20;;;3.00;29.40;;;;;;10450117;28;20229;-70
2021/04/06 03:12:50;;;;;;;2.30;1.40;;;3.00;29.40;;;;;;10453468;28;20228;-70
2021/04/06 03:17:55;;;;;;;3.30;2.00;;;3.00;29.30;;;;;;10444050;28;20387;-70
2021/04/06 03:22:57;;;;;;;2.60;1.97;;;3.00;29.20;;;;;;10444487;28;20221;-70
2021/04/06 03:28:06;;;;;;;4.33;1.70;;;3.10;29.30;;;;;;10446827;28;20307;-70
2021/04/06 03:33:10;;;;;;;1.90;1.73;;;3.00;29.40;;;;;;10447082;28;20229;-70
2021/04/06 03:38:14;;;;;;;1.97;1.63;;;2.90;29.30;;;;;;10437974;28;20239;-70
2021/04/06 03:43:18;;;;;;;3.73;2.00;;;3.00;29.30;;;;;;10449259;28;20840;-70
2021/04/06 03:48:21;;;;;;;2.83;1.70;;;2.90;29.30;;;;;;10445172;28;20227;-70
2021/04/06 03:53:25;;;;;;;2.27;1.90;;;2.90;29.10;;;;;;10448902;28;20332;-70
2021/04/06 03:58:33;;;;;;;3.07;1.70;;;2.90;29.20;;;;;;10449997;28;20233;-70
2021/04/06 04:03:35;;;;;;;3.30;2.10;;;2.90;29.00;;;;;;10448308;28;20236;-70
2021/04/06 04:08:38;;;;;;;2.67;1.97;;;2.90;29.30;;;;;;10444328;28;20676;-70
2021/04/06 04:13:41;;;;;;;2.60;1.90;;;2.80;29.20;;;;;;10447176;28;20233;-70
2021/04/06 04:18:43;;;;;;;3.17;2.10;;;2.70;29.20;;;;;;10447956;28;20233;-70
2021/04/06 04:23:45;;;;;;;2.33;1.70;;;2.70;29.20;;;;;;10446795;28;20233;-70
2021/04/06 04:28:49;;;;;;;2.83;1.97;;;2.70;29.20;;;;;;10445823;28;20225;-70
2021/04/06 04:33:51;;;;;;;3.30;2.10;;;2.70;29.20;;;;;;10446501;28;20236;-70
2021/04/06 04:38:53;;;;;;;2.13;1.93;;;2.60;29.10;;;;;;10447500;28;20615;-70
2021/04/06 04:43:57;;;;;;;2.23;1.60;;;2.60;29.10;;;;;;10450090;28;20605;-70
2021/04/06 04:48:59;;;;;;;3.07;2.17;;;2.50;29.10;;;;;;10443588;28;20247;-70
2021/04/06 04:54:01;;;;;;;3.30;1.80;;;2.50;29.10;;;;;;10448601;28;20237;-70
2021/04/06 04:59:04;;;;;;;3.70;1.87;;;2.50;29.30;;;;;;10447722;28;20241;-70
2021/04/06 05:04:06;;;;;;;2.60;1.70;;;2.50;29.40;;;;;;10447253;28;20237;-70
2021/04/06 05:09:09;;;;;;;1.67;1.50;;;2.50;29.30;;;;;;10447514;28;20235;-70
2021/04/06 05:14:12;;;;;;;2.93;1.43;;;2.40;29.20;;;;;;10447199;28;20323;-70
2021/04/06 05:19:14;;;;;;;2.23;1.43;;;2.50;29.40;;;;;;10451476;28;20247;-70
2021/04/06 05:24:16;;;;;;;4.57;1.70;;;2.50;29.10;;;;;;10455602;28;20784;-70
2021/04/06 05:29:19;;;;;;;2.37;1.70;;;2.50;29.30;;;;;;10450010;28;20232;-70
2021/04/06 05:34:21;;;;;;;2.73;1.90;;;2.50;29.60;;;;;;10450261;28;20576;-70
2021/04/06 05:39:24;;;;;;;1.77;1.67;;;2.40;29.60;;;;;;10451544;28;20239;-70
2021/04/06 05:44:28;;;;;;;2.57;1.93;;;2.40;29.40;;;;;;10455034;28;20231;-70
2021/04/06 05:49:32;;;;;;;2.57;1.67;;;2.50;29.80;;;;;;10449705;28;20225;-70
2021/04/06 05:54:35;;;;;;;3.70;1.80;;;2.50;30.00;;;;;;10452966;28;20236;-70
2021/04/06 05:59:38;;;;;;;2.60;1.67;;;2.60;29.90;;;;;;10450490;28;20233;-70
2021/04/06 06:04:40;;;;;;;3.17;2.10;;;2.60;30.00;;;;;;10453474;28;20233;-70
2021/04/06 06:09:43;;;;;;;5.10;1.90;;;2.60;29.90;;;;;;10452581;28;20742;-70
2021/04/06 06:14:48;;;;;;;2.47;1.70;;;2.70;29.90;;;;;;10449475;28;20235;-70
2021/04/06 06:19:56;;;;;;;4.37;1.90;;;2.80;30.00;;;;;;10448888;28;20328;-70
2021/04/06 06:25:04;;;;;;;2.80;2.00;;;2.80;30.20;;;;;;10450569;28;20225;-70
2021/04/06 06:30:26;;;;;;;2.60;1.80;;;2.90;30.30;;;;;;10451462;28;20419;-70
2021/04/06 06:35:36;;;;;;;2.63;2.07;;;2.90;30.40;;;;;;10452282;28;20259;-70
2021/04/06 06:40:38;;;;;;;4.43;1.70;;;3.00;30.50;;;;;;10449582;28;20240;-70
2021/04/06 06:45:42;;;;;;;3.97;1.73;;;3.00;30.00;;;;;;10452584;28;20632;-70
2021/04/06 06:50:48;;;;;;;1.53;1.43;;;3.10;29.90;;;;;;10451033;28;20268;-70
2021/04/06 06:55:52;;;;;;;2.53;1.80;;;3.20;30.10;;;;;;10447856;28;20224;-70
2021/04/06 07:00:55;;;;;;;1.77;1.53;;;3.30;30.00;;;;;;10453316;28;20725;-70
2021/04/06 07:06:20;;;;;;;2.67;1.50;;;3.40;30.00;;;;;;10449848;28;20220;-71
2021/04/06 07:11:24;;;;;;;5.23;1.77;;;3.40;30.00;;;;;;10448084;28;20242;-70
2021/04/06 07:16:28;;;;;;;2.73;1.57;;;3.40;29.90;;;;;;10446465;28;20721;-70
2021/04/06 07:21:31;;;;;;;4.40;1.67;;;3.40;30.00;;;;;;10449083;28;20608;-70
2021/04/06 07:26:33;;;;;;;2.90;1.40;;;3.50;30.00;;;;;;10446031;28;20315;-70
2021/04/06 07:31:38;;;;;;;3.00;1.70;;;3.50;30.00;;;;;;10449996;28;20716;-69
2021/04/06 07:36:40;;;;;;;2.73;1.27;;;3.60;30.20;;;;;;10448716;28;20225;-69
2021/04/06 07:41:46;;;;;;;2.77;1.57;;;3.70;30.00;;;;;;10445064;28;20252;-69
2021/04/06 07:46:50;;;;;;;4.03;2.10;;;3.70;30.00;;;;;;10444266;28;20228;-69
2021/04/06 07:51:54;;;;;;;2.80;1.30;;;3.80;30.00;;;;;;10448706;28;20781;-69
2021/04/06 07:56:58;;;;;;;3.13;1.50;;;4.00;30.30;;;;;;10448067;28;20229;-70
2021/04/06 08:02:24;;;;;;;4.37;1.60;;;4.10;30.10;;;;;;10450089;28;20316;-70
2021/04/06 08:07:28;;;;;;;4.37;1.80;;;4.20;30.10;;;;;;10443694;28;20295;-69
2021/04/06 08:12:33;;;;;;;3.53;2.00;;;4.20;30.10;;;;;;10449768;28;20252;-69
2021/04/06 08:17:48;;;;;;;3.10;2.00;;;4.30;30.00;;;;;;10443228;28;20306;-70
2021/04/06 08:22:53;;;;;;;3.30;1.80;;;4.30;30.20;;;;;;10445940;28;20231;-70
2021/04/06 08:27:57;;;;;;;3.23;1.60;;;4.40;30.20;;;;;;10449006;28;20711;-70
2021/04/06 08:33:28;;;;;;;5.90;1.77;;;4.50;30.30;;;;;;10447620;28;20229;-70
2021/04/06 08:38:47;;;;;;;2.70;1.33;;;4.70;31.10;;;;;;10440927;28;20716;-70
2021/04/06 08:43:53;;;;;;;4.63;1.60;;;4.80;30.60;;;;;;10447772;28;20244;-70
2021/04/06 08:48:57;;;;;;;1.70;1.47;;;4.90;30.20;;;;;;10440809;28;20742;-70
2021/04/06 08:54:01;;;;;;;3.53;1.80;;;5.00;30.00;;;;;;10454931;28;20275;-70
2021/04/06 08:59:20;;;;;;;3.93;1.70;;;5.00;29.90;;;;;;10453004;28;20233;-70
2021/04/06 09:04:25;;;;;;;4.30;1.77;;;5.00;30.40;;;;;;10451787;28;20846;-70
2021/04/06 09:09:29;;;;;;;2.13;1.63;;;5.10;30.00;;;;;;10448580;28;20604;-70
2021/04/06 09:14:32;;;;;;;2.30;1.90;;;5.10;29.90;;;;;;10450073;28;20228;-69
2021/04/06 09:19:36;;;;;;;2.87;1.73;;;5.10;29.90;;;;;;10450781;28;20229;-69
2021/04/06 09:24:40;;;;;;;3.00;1.57;;;5.10;30.10;;;;;;10454503;28;20311;-69
2021/04/06 09:29:45;;;;;;;2.97;1.70;;;5.10;30.00;;;;;;10453696;28;20233;-69
2021/04/06 09:34:50;;;;;;;2.40;1.53;;;5.20;30.10;;;;;;10453716;28;20256;-70
2021/04/06 09:39:54;;;;;;;2.67;1.70;;;5.20;30.50;;;;;;10445330;28;20291;-69
2021/04/06 09:44:56;;;;;;;3.07;1.53;;;5.20;30.20;;;;;;10448792;28;20598;-70
2021/04/06 09:49:59;;;;;;;1.80;1.50;;;5.30;30.10;;;;;;10447349;28;20224;-70
2021/04/06 09:55:06;;;;;;;2.03;1.60;;;5.30;30.30;;;;;;10436433;28;20279;-71
2021/04/06 10:00:13;;;;;;;2.87;1.53;;;5.40;30.40;;;;;;10444515;28;20239;-71
2021/04/06 10:05:20;;;;;;;2.13;1.87;;;5.40;30.30;;;;;;10436809;28;20329;-71
2021/04/06 10:10:26;;;;;;;3.10;1.67;;;5.50;30.60;;;;;;10458180;28;20600;-70
2021/04/06 10:15:30;;;;;;;8.67;5.10;;;5.60;30.10;;;;;;10441932;28;20689;-71
2021/04/06 10:20:40;;;;;;;2.67;1.80;;;5.70;30.40;;;;;;10441397;28;20229;-71
2021/04/06 10:25:45;;;;;;;4.27;2.50;;;5.70;30.10;;;;;;10451202;28;20248;-72
2021/04/06 10:30:49;;;;;;;3.93;1.97;;;5.70;30.00;;;;;;10441207;28;20236;-71
2021/04/06 10:35:55;;;;;;;4.40;1.93;;;5.80;30.00;;;;;;10439538;28;20237;-72
2021/04/06 10:41:03;;;;;;;3.10;1.93;;;5.90;30.00;;;;;;10437169;28;20233;-71
2021/04/06 10:46:11;;;;;;;3.00;1.80;;;5.90;30.10;;;;;;10440705;28;20693;-71
2021/04/06 10:51:16;;;;;;;4.80;1.80;;;5.90;30.10;;;;;;10435577;28;20598;-71
2021/04/06 10:56:20;;;;;;;3.13;1.80;;;6.00;30.00;;;;;;10435152;28;20235;-71
2021/04/06 11:01:24;;;;;;;3.17;1.77;;;6.10;30.00;;;;;;10438083;28;20256;-72
2021/04/06 11:06:30;;;;;;;4.10;1.90;;;6.00;29.90;;;;;;10446380;28;20229;-71
2021/04/06 11:11:34;;;;;;;2.90;2.00;;;6.00;30.30;;;;;;10438790;28;20228;-72
2021/04/06 11:16:38;;;;;;;3.40;1.53;;;5.90;30.30;;;;;;10432717;28;20224;-71
2021/04/06 11:21:43;;;;;;;3.83;1.93;;;5.80;30.30;;;;;;10436238;28;20225;-72
2021/04/06 11:26:46;;;;;;;3.63;1.87;;;5.70;30.70;;;;;;10436204;28;20225;-72
2021/04/06 11:31:54;;;;;;;4.10;1.80;;;5.80;30.40;;;;;;10437040;28;20645;-72
2021/04/06 11:36:57;;;;;;;2.37;1.40;;;6.00;30.90;;;;;;10437044;28;20228;-72
2021/04/06 11:42:00;;;;;;;3.43;1.40;;;6.00;30.50;;;;;;10439191;28;20518;-72
2021/04/06 11:47:03;;;;;;;2.07;1.30;;;6.20;29.90;;;;;;10435956;28;20217;-72
2021/04/06 11:52:06;;;;;;;1.90;1.47;;;6.10;29.70;;;;;;10439994;28;20223;-72
2021/04/06 11:57:08;;;;;;;3.70;1.40;;;6.10;29.40;;;;;;10439480;28;20320;-72
2021/04/06 12:02:13;;;;;;;1.77;1.30;;;6.10;29.60;;;;;;10435642;28;20233;-72
2021/04/06 12:07:16;;;;;;;3.00;1.30;;;6.10;29.50;;;;;;10435139;28;20611;-72
2021/04/06 12:12:20;;;;;;;2.73;1.30;;;6.20;29.40;;;;;;10440536;28;20228;-72
2021/04/06 12:17:24;;;;;;;2.97;1.37;;;6.30;29.40;;;;;;10426448;28;20251;-72
2021/04/06 12:22:27;;;;;;;3.13;1.27;;;6.40;29.40;;;;;;10422511;28;20235;-72
2021/04/06 12:27:29;;;;;;;1.67;1.13;;;6.50;29.00;;;;;;10436841;28;20228;-72
2021/04/06 12:32:31;;;;;;;2.27;1.27;;;6.60;29.00;;;;;;10446835;28;20606;-71
2021/04/06 12:37:35;;;;;;;3.60;1.40;;;6.70;29.00;;;;;;10449679;28;20569;-73
2021/04/06 12:42:39;;;;;;;2.23;1.20;;;6.80;29.40;;;;;;10453477;28;20233;-73
2021/04/06 12:47:42;;;;;;;2.10;1.20;;;7.00;29.10;;;;;;10452843;28;20750;-73
2021/04/06 12:52:45;;;;;;;2.07;1.30;;;7.20;28.80;;;;;;10448989;28;20224;-73
2021/04/06 12:57:47;;;;;;;1.67;1.43;;;7.30;28.40;;;;;;10450356;28;20221;-73
2021/04/06 13:02:51;;;;;;;2.30;1.30;;;7.40;28.70;;;;;;10450993;28;20784;-73
2021/04/06 13:07:54;;;;;;;1.50;1.27;;;7.40;28.80;;;;;;10452979;28;20217;-73
2021/04/06 13:12:56;;;;;;;2.53;1.17;;;7.50;28.50;;;;;;10451224;28;20237;-73
2021/04/06 13:17:58;;;;;;;2.03;1.30;;;7.50;28.20;;;;;;10449483;28;20231;-73
2021/04/06 13:23:02;;;;;;;4.13;1.70;;;7.50;28.00;;;;;;10442797;28;20235;-73
2021/04/06 13:28:05;;;;;;;2.47;1.43;;;7.50;27.70;;;;;;10445492;28;20209;-72
2021/04/06 13:33:07;;;;;;;2.33;1.37;;;7.40;28.30;;;;;;10454585;28;20225;-73
2021/04/06 13:38:10;;;;;;;4.40;1.43;;;7.40;28.30;;;;;;10452485;28;20227;-72
2021/04/06 13:43:13;;;;;;;1.87;1.30;;;7.40;28.10;;;;;;10449582;28;20232;-73
2021/04/06 13:48:15;;;;;;;4.10;1.50;;;7.30;28.40;;;;;;10447358;28;20221;-72
2021/04/06 13:53:18;;;;;;;2.37;1.37;;;7.40;28.20;;;;;;10453475;28;20233;-73
2021/04/06 13:58:20;;;;;;;1.90;1.03;;;7.40;27.40;;;;;;10448333;28;20227;-70
2021/04/06 14:03:24;;;;;;;1.70;1.10;;;7.50;27.50;;;;;;10449016;28;20235;-70
2021/04/06 14:08:27;;;;;;;2.03;1.10;;;7.60;26.80;;;;;;10451348;28;20730;-72
2021/04/06 14:13:30;;;;;;;2.37;1.23;;;7.70;27.10;;;;;;10448727;28;20244;-71
2021/04/06 14:18:32;;;;;;;2.13;1.03;;;7.90;27.60;;;;;;10447541;28;21454;-71
2021/04/06 14:23:36;;;;;;;1.43;1.10;;;8.10;27.10;;;;;;10449812;28;20234;-71
2021/04/06 14:28:38;;;;;;;1.20;1.10;;;8.20;26.90;;;;;;10447800;28;20902;-71
2021/04/06 14:33:41;;;;;;;5.20;1.30;;;8.30;26.50;;;;;;10448572;28;20298;-71
2021/04/06 14:38:44;;;;;;;3.07;1.30;;;8.30;27.00;;;;;;10451092;28;20239;-71
2021/04/06 14:43:47;;;;;;;1.23;1.00;;;8.00;27.80;;;;;;10451444;28;20225;-70
2021/04/06 14:48:51;;;;;;;1.10;0.97;;;7.50;28.60;;;;;;10448148;28;20591;-71
2021/04/06 14:53:55;;;;;;;1.47;0.87;;;7.00;28.80;;;;;;10443714;28;20608;-70
2021/04/06 14:58:57;;;;;;;2.60;1.10;;;6.80;29.20;;;;;;10450858;28;20232;-71
2021/04/06 15:04:00;;;;;;;1.83;1.40;;;6.70;29.20;;;;;;10447499;28;20229;-71
2021/04/06 15:09:04;;;;;;;1.63;0.97;;;6.80;29.30;;;;;;10448955;28;20225;-71
2021/04/06 15:14:06;;;;;;;1.53;1.10;;;7.00;29.40;;;;;;10452788;28;20232;-71
2021/04/06 15:19:09;;;;;;;1.30;1.10;;;7.20;28.70;;;;;;10443950;28;20736;-70
2021/04/06 15:24:12;;;;;;;2.70;1.67;;;7.30;28.30;;;;;;10446021;28;20239;-71
2021/04/06 15:29:15;;;;;;;2.40;1.80;;;7.40;27.60;;;;;;10441494;28;20232;-71
2021/04/06 15:34:19;;;;;;;3.23;1.30;;;7.50;27.50;;;;;;10443855;28;20240;-70
2021/04/06 15:39:23;;;;;;;1.70;1.20;;;7.60;27.60;;;;;;10447297;28;20240;-71
2021/04/06 15:44:26;;;;;;;2.53;1.07;;;7.60;26.90;;;;;;10448107;28;20243;-70
2021/04/06 15:49:29;;;;;;;2.60;1.10;;;7.70;27.00;;;;;;10439927;28;20407;-72
2021/04/06 15:54:32;;;;;;;2.20;1.53;;;7.70;26.70;;;;;;10446020;28;20232;-71
2021/04/06 15:59:34;;;;;;;1.97;1.53;;;7.80;26.30;;;;;;10444244;28;20225;-71
2021/04/06 16:04:36;;;;;;;3.30;1.40;;;7.80;26.40;;;;;;10450389;28;20240;-71
2021/04/06 16:09:40;;;;;;;2.97;1.30;;;7.70;26.30;;;;;;10447498;28;20221;-71
2021/04/06 16:14:42;;;;;;;2.00;1.53;;;7.80;25.60;;;;;;10443512;28;20233;-71
2021/04/06 16:19:59;;;;;;;2.80;1.37;;;7.80;25.60;;;;;;10440521;28;20237;-71
2021/04/06 16:25:03;;;;;;;2.27;1.30;;;7.70;24.80;;;;;;10443011;28;20593;-72
2021/04/06 16:30:07;;;;;;;2.10;1.33;;;7.70;26.00;;;;;;10444281;28;20237;-71
2021/04/06 16:35:11;;;;;;;1.63;0.97;;;7.70;26.40;;;;;;10445674;28;20311;-71
2021/04/06 16:40:14;;;;;;;1.33;1.20;;;7.60;26.00;;;;;;10438416;28;20243;-70
2021/04/06 16:45:17;;;;;;;1.70;1.07;;;7.50;26.30;;;;;;10442549;28;20232;-69
2021/04/06 16:50:19;;;;;;;1.77;1.20;;;7.30;26.50;;;;;;10441735;28;20235;-70
2021/04/06 16:55:22;;;;;;;2.43;1.30;;;7.00;26.90;;;;;;10443381;28;20606;-70
2021/04/06 17:00:25;;;;;;;2.23;1.47;;;6.90;27.10;;;;;;10446378;28;20232;-70
2021/04/06 17:05:27;;;;;;;2.57;1.60;;;6.70;27.60;;;;;;10446330;28;20231;-70
2021/04/06 17:10:31;;;;;;;1.83;1.30;;;6.50;27.60;;;;;;10445593;28;20225;-70
2021/04/06 17:15:34;;;;;;;1.87;1.53;;;6.40;28.00;;;;;;10447112;28;20236;-70
2021/04/06 17:20:36;;;;;;;1.30;1.20;;;6.30;27.90;;;;;;10450174;28;20676;-70
2021/04/06 17:25:40;;;;;;;1.23;1.03;;;6.30;28.10;;;;;;10454834;28;20612;-70
2021/04/06 17:30:45;;;;;;;1.37;1.27;;;6.30;28.20;;;;;;10453306;28;20239;-70
2021/04/06 17:35:50;;;;;;;1.80;1.40;;;6.20;28.10;;;;;;10449584;28;20229;-70
2021/04/06 17:40:53;;;;;;;1.80;1.60;;;6.20;27.90;;;;;;10450815;28;20240;-70
2021/04/06 17:45:56;;;;;;;1.23;1.10;;;6.20;28.00;;;;;;10446919;28;20593;-70
2021/04/06 17:50:58;;;;;;;1.40;1.20;;;6.20;27.80;;;;;;10451689;28;20229;-70
2021/04/06 17:56:02;;;;;;;1.40;1.30;;;6.20;27.70;;;;;;10449844;28;20225;-72
2021/04/06 18:01:05;;;;;;;2.60;1.30;;;6.10;27.70;;;;;;10452853;28;20712;-72
2021/04/06 18:06:08;;;;;;;1.83;1.43;;;6.10;27.90;;;;;;10451888;28;20235;-71
2021/04/06 18:11:14;;;;;;;1.10;1.10;;;6.00;27.80;;;;;;10452071;28;20226;-72
2021/04/06 18:16:17;;;;;;;1.10;1.10;;;6.00;27.90;;;;;;10447887;28;20231;-72
2021/04/06 18:21:19;;;;;;;1.77;1.63;;;6.20;28.00;;;;;;10451185;28;20225;-70
2021/04/06 18:26:22;;;;;;;1.43;1.33;;;6.00;27.90;;;;;;10451433;28;20233;-70
2021/04/06 18:31:26;;;;;;;1.40;1.30;;;6.00;28.00;;;;;;10449718;28;20723;-70
2021/04/06 18:36:28;;;;;;;2.57;2.33;;;5.90;28.10;;;;;;10451205;28;20776;-70
2021/04/06 18:41:31;;;;;;;3.77;2.80;;;5.90;28.10;;;;;;10447859;28;20367;-70
2021/04/06 18:46:35;;;;;;;2.20;1.80;;;6.00;28.20;;;;;;10448022;28;20255;-70
2021/04/06 18:51:41;;;;;;;1.77;1.60;;;5.90;28.10;;;;;;10443887;28;20233;-71
2021/04/06 18:56:44;;;;;;;1.40;1.30;;;5.90;28.20;;;;;;10453205;28;20308;-71
2021/04/06 19:01:47;;;;;;;1.90;1.57;;;5.80;28.20;;;;;;10448950;28;20236;-72
2021/04/06 19:06:50;;;;;;;2.50;2.00;;;5.80;28.20;;;;;;10444016;28;20220;-71
2021/04/06 19:11:53;;;;;;;5.40;4.80;;;5.70;28.20;;;;;;10444362;28;20239;-71
2021/04/06 19:16:56;;;;;;;5.37;4.43;;;5.70;28.90;;;;;;10445090;28;20589;-71
2021/04/06 19:21:59;;;;;;;3.40;3.10;;;5.70;28.30;;;;;;10445388;28;20217;-71
2021/04/06 19:27:02;;;;;;;2.50;2.30;;;5.60;28.20;;;;;;10447540;28;20304;-70
2021/04/06 19:32:05;;;;;;;3.87;2.30;;;5.60;28.50;;;;;;10446044;28;20279;-71
2021/04/06 19:37:08;;;;;;;2.07;1.43;;;5.60;28.40;;;;;;10446375;28;20231;-73
2021/04/06 19:42:11;;;;;;;1.80;1.40;;;5.60;29.00;;;;;;10445744;28;20233;-71
2021/04/06 19:47:13;;;;;;;2.50;1.30;;;5.50;29.40;;;;;;10447560;28;20217;-72
2021/04/06 19:52:16;;;;;;;1.40;1.30;;;5.20;29.70;;;;;;10435283;28;20228;-71
2021/04/06 19:57:19;;;;;;;1.83;1.40;;;5.20;30.00;;;;;;10449267;28;20243;-71
2021/04/06 20:02:22;;;;;;;0.90;0.90;;;4.90;30.30;;;;;;10448795;28;20689;-72
2021/04/06 20:07:24;;;;;;;1.40;1.30;;;4.80;30.30;;;;;;10434496;28;20282;-71
2021/04/06 20:12:27;;;;;;;1.00;1.00;;;4.70;30.10;;;;;;10439380;28;20228;-73
2021/04/06 20:17:37;;;;;;;1.10;1.00;;;4.60;30.40;;;;;;10444160;28;20588;-72
2021/04/06 20:22:40;;;;;;;1.50;1.40;;;4.60;30.40;;;;;;10449105;28;20225;-73
2021/04/06 20:27:44;;;;;;;2.30;2.00;;;4.60;30.40;;;;;;10444992;28;20231;-73
2021/04/06 20:32:47;;;;;;;1.80;1.70;;;4.60;30.40;;;;;;10446618;28;20926;-72
2021/04/06 20:37:50;;;;;;;1.20;1.10;;;4.60;30.40;;;;;;10446395;28;20216;-73
2021/04/06 20:42:53;;;;;;;1.23;1.13;;;4.60;30.40;;;;;;10442622;28;20236;-73
2021/04/06 20:47:57;;;;;;;2.50;1.17;;;4.70;30.80;;;;;;10444099;28;20225;-73
2021/04/06 20:52:59;;;;;;;1.00;0.90;;;4.80;30.60;;;;;;10446739;28;20307;-73
2021/04/06 20:58:03;;;;;;;1.53;1.00;;;4.70;30.50;;;;;;10448581;28;20256;-73
2021/04/06 21:03:07;;;;;;;1.17;0.97;;;4.80;30.90;;;;;;10452865;28;20232;-73
2021/04/06 21:08:09;;;;;;;0.80;0.80;;;4.80;30.50;;;;;;10449921;28;20241;-73
2021/04/06 21:13:12;;;;;;;1.97;1.00;;;4.80;30.50;;;;;;10452578;28;20244;-73
2021/04/06 21:18:14;;;;;;;0.90;0.90;;;4.90;30.70;;;;;;10450100;28;20235;-73
2021/04/06 21:23:17;;;;;;;1.13;0.87;;;4.90;30.60;;;;;;10452556;28;20232;-73
2021/04/06 21:28:20;;;;;;;1.10;0.93;;;4.90;31.40;;;;;;10440228;28;20225;-73
2021/04/06 21:33:23;;;;;;;1.00;1.00;;;5.00;30.70;;;;;;10445911;28;20235;-73
2021/04/06 21:38:25;;;;;;;1.73;1.10;;;5.00;30.70;;;;;;10449311;28;20225;-73
2021/04/06 21:43:29;;;;;;;0.97;0.87;;;5.00;30.70;;;;;;10447652;28;20315;-73
2021/04/06 21:48:32;;;;;;;1.60;1.00;;;5.10;30.80;;;;;;10453113;28;20233;-73
2021/04/06 21:53:36;;;;;;;1.10;0.97;;;5.10;30.80;;;;;;10448104;28;20240;-73
2021/04/06 21:58:39;;;;;;;0.83;0.83;;;5.10;30.80;;;;;;10450927;28;20232;-73
2021/04/06 22:03:42;;;;;;;1.20;1.10;;;5.20;30.60;;;;;;10447308;28;20284;-73
2021/04/06 22:08:44;;;;;;;1.37;1.20;;;5.10;30.40;;;;;;10448234;28;20225;-73
2021/04/06 22:13:48;;;;;;;1.40;1.27;;;5.00;30.50;;;;;;10446353;28;20772;-73
2021/04/06 22:18:50;;;;;;;2.07;1.40;;;5.00;30.70;;;;;;10446039;28;20674;-73
2021/04/06 22:23:52;;;;;;;1.40;1.30;;;5.10;30.80;;;;;;10449559;28;20235;-73
2021/04/06 22:28:55;;;;;;;1.73;1.30;;;4.80;30.50;;;;;;10449487;28;20221;-73
2021/04/06 22:33:58;;;;;;;2.67;1.30;;;4.70;30.80;;;;;;10451938;28;20235;-73
2021/04/06 22:39:02;;;;;;;1.43;1.20;;;4.80;30.80;;;;;;10447681;28;20220;-73
2021/04/06 22:44:05;;;;;;;1.33;1.23;;;4.60;30.90;;;;;;10451988;28;20251;-73
2021/04/06 22:49:07;;;;;;;2.30;1.40;;;4.60;31.70;;;;;;10451026;28;20231;-73
2021/04/06 22:54:11;;;;;;;1.87;1.30;;;4.70;31.00;;;;;;10450366;28;20235;-73
2021/04/06 22:59:15;;;;;;;1.50;1.40;;;4.70;30.80;;;;;;10451652;28;20229;-73
2021/04/06 23:04:17;;;;;;;1.60;1.30;;;4.70;31.10;;;;;;10444852;28;20241;-73
2021/04/06 23:09:19;;;;;;;1.43;1.33;;;4.80;30.90;;;;;;10449203;28;20231;-73
2021/04/06 23:14:24;;;;;;;1.40;1.30;;;4.70;30.90;;;;;;10445919;28;20723;-73
2021/04/06 23:19:27;;;;;;;1.53;1.43;;;4.70;31.00;;;;;;10444626;28;20793;-73
2021/04/06 23:24:29;;;;;;;1.90;1.40;;;4.60;30.80;;;;;;10449827;28;20235;-73
2021/04/06 23:29:32;;;;;;;1.53;1.43;;;4.60;31.00;;;;;;10449688;28;20235;-73
2021/04/06 23:34:34;;;;;;;1.63;1.40;;;4.60;31.20;;;;;;10447902;28;20235;-73
2021/04/06 23:39:36;;;;;;;1.37;1.27;;;4.50;30.90;;;;;;10449083;28;20228;-73
2021/04/06 23:44:39;;;;;;;2.00;1.60;;;4.50;31.00;;;;;;10447468;28;20233;-73
2021/04/06 23:49:41;;;;;;;1.57;1.37;;;4.50;31.10;;;;;;10444631;28;20318;-73
2021/04/06 23:54:43;;;;;;;1.70;1.60;;;4.50;31.10;;;;;;10448424;28;20653;-73
2021/04/06 23:59:46;;;;;;;2.37;1.80;;;4.50;31.30;;;;;;10449179;28;20225;-73
